createdAt,value
2023-01-02T00:01:21.123Z,1.85
2023-01-02T00:03:47.629Z,1.60
2023-01-02T00:06:14.488Z,1.80
2023-01-02T00:08:40.867Z,1.67
2023-01-02T00:11:07.205Z,1.65
2023-01-02T00:13:33.567Z,1.80
2023-01-02T00:15:59.985Z,1.30
2023-01-02T00:18:26.432Z,1.52
2023-01-02T00:20:52.923Z,1.10
2023-01-02T00:23:19.327Z,1.35
2023-01-02T00:25:47.607Z,1.40
2023-01-02T00:28:13.989Z,1.55
2023-01-02T00:30:40.356Z,1.40
2023-01-02T00:33:07.135Z,1.15
2023-01-02T00:35:33.730Z,1.38
2023-01-02T00:38:00.080Z,1.27
2023-01-02T00:40:26.464Z,1.20
2023-01-02T00:42:52.851Z,1.42
2023-01-02T00:45:19.295Z,1.17
2023-01-02T00:47:45.751Z,1.30
2023-01-02T00:50:12.137Z,1.00
2023-01-02T00:52:38.528Z,1.27
2023-01-02T00:55:05.346Z,1.10
2023-01-02T00:57:31.774Z,1.17
2023-01-02T00:59:58.101Z,1.25
2023-01-02T01:02:24.476Z,1.10
2023-01-02T01:04:50.909Z,1.33
2023-01-02T01:07:17.432Z,1.30
2023-01-02T01:09:43.792Z,1.02
2023-01-02T01:12:10.311Z,1.20
2023-01-02T01:14:36.665Z,0.88
2023-01-02T01:17:03.085Z,1.17
2023-01-02T01:19:33.305Z,1.33
2023-01-02T01:21:59.737Z,1.08
2023-01-02T01:24:26.496Z,1.27
2023-01-02T01:26:52.880Z,1.13
2023-01-02T01:29:19.835Z,1.10
2023-01-02T01:31:46.306Z,1.13
2023-01-02T01:34:13.030Z,1.20
2023-01-02T01:36:39.509Z,1.27
2023-01-02T01:39:06.267Z,1.20
2023-01-02T01:41:32.768Z,1.40
2023-01-02T01:44:00.353Z,1.38
2023-01-02T01:46:31.736Z,1.35
2023-01-02T01:49:18.307Z,1.30
2023-01-02T01:51:52.892Z,1.23
2023-01-02T01:54:20.912Z,1.50
2023-01-02T01:56:49.131Z,1.50
2023-01-02T01:59:15.986Z,1.55
2023-01-02T02:01:43.231Z,1.50
2023-01-02T02:04:11.265Z,1.33
2023-01-02T02:06:38.009Z,1.35
2023-01-02T02:09:06.280Z,1.63
2023-01-02T02:11:32.681Z,1.65
2023-01-02T02:14:00.034Z,1.20
2023-01-02T02:16:41.824Z,1.80
2023-01-02T02:19:08.311Z,1.55
2023-01-02T02:21:53.407Z,1.30
2023-01-02T02:24:32.223Z,1.30
2023-01-02T02:27:01.797Z,1.48
2023-01-02T02:29:51.430Z,1.20
2023-01-02T02:32:26.143Z,1.25
2023-01-02T02:34:55.299Z,1.20
2023-01-02T02:37:27.366Z,1.52
2023-01-02T02:39:59.467Z,1.63
2023-01-02T02:42:37.493Z,1.45
2023-01-02T02:45:03.874Z,1.40
2023-01-02T02:47:35.422Z,1.45
2023-01-02T02:50:10.840Z,1.60
2023-01-02T02:52:46.475Z,1.45
2023-01-02T03:00:06.754Z,1.50
2023-01-02T03:02:33.743Z,1.33
2023-01-02T03:05:02.224Z,1.42
2023-01-02T03:07:28.523Z,1.27
2023-01-02T03:09:57.937Z,1.23
2023-01-02T03:12:43.060Z,1.20
2023-01-02T03:15:24.560Z,1.20
2023-01-02T03:17:59.591Z,1.85
2023-01-02T03:20:28.965Z,1.60
2023-01-02T03:22:58.194Z,1.33
2023-01-02T03:25:24.843Z,1.58
2023-01-02T03:27:52.653Z,1.40
2023-01-02T03:30:20.339Z,2.05
2023-01-02T03:32:49.495Z,1.48
2023-01-02T03:35:17.629Z,1.50
2023-01-02T03:37:48.749Z,1.27
2023-01-02T03:40:18.576Z,1.50
2023-01-02T03:42:51.510Z,1.33
2023-01-02T03:45:19.707Z,1.33
2023-01-02T03:47:51.518Z,1.40
2023-01-02T03:50:23.494Z,1.67
2023-01-02T03:52:49.940Z,1.40
2023-01-02T03:55:16.716Z,1.35
2023-01-02T03:57:57.096Z,1.63
2023-01-02T04:00:29.989Z,1.40
2023-01-02T04:02:56.454Z,1.27
2023-01-02T04:05:35.954Z,1.20
2023-01-02T04:08:17.720Z,1.45
2023-01-02T04:10:45.628Z,1.50
2023-01-02T04:13:16.109Z,1.20
2023-01-02T04:15:43.652Z,1.60
2023-01-02T04:18:12.061Z,1.30
2023-01-02T04:20:40.538Z,1.10
2023-01-02T04:23:09.244Z,1.40
2023-01-02T04:25:40.950Z,1.23
2023-01-02T04:28:20.684Z,1.65
2023-01-02T04:30:49.525Z,1.48
2023-01-02T04:33:16.785Z,1.65
2023-01-02T04:35:43.202Z,1.25
2023-01-02T04:38:10.321Z,1.42
2023-01-02T04:40:38.108Z,1.27
2023-01-02T04:43:08.775Z,1.38
2023-01-02T04:45:36.567Z,1.35
2023-01-02T04:48:02.979Z,1.10
2023-01-02T04:50:29.362Z,1.35
2023-01-02T04:52:55.774Z,1.15
2023-01-02T04:55:22.161Z,1.20
2023-01-02T04:57:48.454Z,1.35
2023-01-02T05:00:15.527Z,1.10
2023-01-02T05:02:42.073Z,1.42
2023-01-02T05:05:09.168Z,1.50
2023-01-02T05:07:36.374Z,1.77
2023-01-02T05:10:03.335Z,0.98
2023-01-02T05:12:29.708Z,1.58
2023-01-02T05:14:56.045Z,1.30
2023-01-02T05:17:22.393Z,1.50
2023-01-02T05:19:48.773Z,1.10
2023-01-02T05:22:33.924Z,1.30
2023-01-02T05:25:00.345Z,1.13
2023-01-02T05:27:26.667Z,1.23
2023-01-02T05:29:53.024Z,1.30
2023-01-02T05:32:19.418Z,1.13
2023-01-02T05:34:45.773Z,1.20
2023-01-02T05:37:12.211Z,1.10
2023-01-02T05:39:38.595Z,1.25
2023-01-02T05:42:05.047Z,1.20
2023-01-02T05:44:31.434Z,1.10
2023-01-02T05:46:57.864Z,1.20
2023-01-02T05:49:24.245Z,0.90
2023-01-02T05:51:50.700Z,0.98
2023-01-02T05:54:17.077Z,1.30
2023-01-02T05:56:43.483Z,1.10
2023-01-02T05:59:09.943Z,0.95
2023-01-02T06:01:36.563Z,1.08
2023-01-02T06:04:03.049Z,1.10
2023-01-02T06:06:33.893Z,1.15
2023-01-02T06:09:00.357Z,1.00
2023-01-02T06:11:27.247Z,1.20
2023-01-02T06:13:54.083Z,1.30
2023-01-02T06:16:20.625Z,1.27
2023-01-02T06:18:47.035Z,1.20
2023-01-02T06:21:14.847Z,1.15
2023-01-02T06:23:41.569Z,1.17
2023-01-02T06:26:12.174Z,1.30
2023-01-02T06:28:38.846Z,1.20
2023-01-02T06:31:06.472Z,1.35
2023-01-02T06:33:33.302Z,1.20
2023-01-02T06:36:00.665Z,1.30
2023-01-02T06:38:27.074Z,1.58
2023-01-02T06:40:54.331Z,1.35
2023-01-02T06:43:20.803Z,1.30
2023-01-02T06:45:47.239Z,1.25
2023-01-02T06:48:13.888Z,1.42
2023-01-02T06:50:40.256Z,1.30
2023-01-02T06:53:06.627Z,1.40
2023-01-02T06:55:32.999Z,1.35
2023-01-02T06:58:03.390Z,1.30
2023-01-02T07:03:01.513Z,1.48
2023-01-02T07:05:27.853Z,1.30
2023-01-02T07:07:54.165Z,1.38
2023-01-02T07:10:20.515Z,1.50
2023-01-02T07:12:46.925Z,1.90
2023-01-02T07:15:13.411Z,1.50
2023-01-02T07:17:39.786Z,1.40
2023-01-02T07:20:06.456Z,1.60
2023-01-02T07:22:32.790Z,1.50
2023-01-02T07:24:59.342Z,1.45
2023-01-02T07:27:25.655Z,1.50
2023-01-02T07:29:52.225Z,1.52
2023-01-02T07:32:23.867Z,1.30
2023-01-02T07:34:53.474Z,1.97
2023-01-02T07:37:20.035Z,1.50
2023-01-02T07:39:46.402Z,1.77
2023-01-02T07:42:12.758Z,1.42
2023-01-02T07:44:39.150Z,1.75
2023-01-02T07:47:05.524Z,1.67
2023-01-02T07:49:31.898Z,1.58
2023-01-02T07:51:58.221Z,1.67
2023-01-02T07:54:24.622Z,1.70
2023-01-02T07:56:52.009Z,1.48
2023-01-02T07:59:18.398Z,1.50
2023-01-02T08:01:44.872Z,1.48
2023-01-02T08:04:11.349Z,1.70
2023-01-02T08:06:41.396Z,1.63
2023-01-02T08:09:07.925Z,1.67
2023-01-02T08:11:34.368Z,1.40
2023-01-02T08:14:00.718Z,1.50
2023-01-02T08:16:27.219Z,1.65
2023-01-02T08:18:55.585Z,1.83
2023-01-02T08:21:22.940Z,1.90
2023-01-02T08:23:49.476Z,1.35
2023-01-02T08:26:15.955Z,1.85
2023-01-02T08:28:42.785Z,1.85
2023-01-02T08:31:10.459Z,1.45
2023-01-02T08:33:37.007Z,1.70
2023-01-02T08:36:03.425Z,1.77
2023-01-02T08:38:30.039Z,1.75
2023-01-02T08:40:59.503Z,1.70
2023-01-02T08:43:26.579Z,1.83
2023-01-02T08:45:53.764Z,1.52
2023-01-02T08:48:21.757Z,1.60
2023-01-02T08:50:48.851Z,1.50
2023-01-02T08:53:15.174Z,1.52
2023-01-02T08:55:41.727Z,1.70
2023-01-02T08:58:08.076Z,1.50
2023-01-02T09:00:34.397Z,1.80
2023-01-02T09:03:00.874Z,1.80
2023-01-02T09:05:30.785Z,1.42
2023-01-02T09:07:57.931Z,1.50
2023-01-02T09:10:24.494Z,1.90
2023-01-02T09:12:50.856Z,1.67
2023-01-02T09:15:17.267Z,1.70
2023-01-02T09:17:43.644Z,1.83
2023-01-02T09:20:10.146Z,1.60
2023-01-02T09:22:36.921Z,1.42
2023-01-02T09:25:04.484Z,1.67
2023-01-02T09:27:30.822Z,1.60
2023-01-02T09:29:57.215Z,2.00
2023-01-02T09:32:23.571Z,1.77
2023-01-02T09:34:50.779Z,1.85
2023-01-02T09:37:17.615Z,1.60
2023-01-02T09:39:44.256Z,1.55
2023-01-02T09:42:13.816Z,1.55
2023-01-02T09:44:42.393Z,1.45
2023-01-02T09:47:11.821Z,1.80
2023-01-02T09:49:41.247Z,1.65
2023-01-02T09:52:08.556Z,1.63
2023-01-02T09:54:34.889Z,1.40
2023-01-02T09:57:12.840Z,1.77
2023-01-02T09:59:48.305Z,1.83
2023-01-02T10:02:24.665Z,1.80
2023-01-02T10:04:57.957Z,1.70
2023-01-02T10:07:30.455Z,1.60
2023-01-02T10:10:00.578Z,1.40
2023-01-02T10:12:34.544Z,1.55
2023-01-02T10:15:02.842Z,2.03
2023-01-02T10:17:32.002Z,1.80
2023-01-02T10:20:00.762Z,1.55
2023-01-02T10:22:37.922Z,1.77
2023-01-02T10:25:18.727Z,1.73
2023-01-02T10:27:54.141Z,1.50
2023-01-02T10:30:22.362Z,1.50
2023-01-02T10:33:12.125Z,1.48
2023-01-02T10:35:43.230Z,1.40
2023-01-02T10:38:14.309Z,1.63
2023-01-02T10:40:45.889Z,1.40
2023-01-02T10:43:12.728Z,1.60
2023-01-02T10:45:39.125Z,1.58
2023-01-02T10:48:05.584Z,1.60
2023-01-02T10:50:47.042Z,1.60
2023-01-02T10:53:30.154Z,1.67
2023-01-02T10:55:56.536Z,1.35
2023-01-02T10:58:27.152Z,1.70
2023-01-02T11:01:04.978Z,1.40
2023-01-02T11:03:33.797Z,1.88
2023-01-02T11:06:15.971Z,1.27
2023-01-02T11:08:55.450Z,1.45
2023-01-02T11:11:23.100Z,1.57
2023-01-02T11:13:54.271Z,1.55
2023-01-02T11:16:22.241Z,1.42
2023-01-02T11:18:50.003Z,1.40
2023-01-02T11:21:24.052Z,1.80
2023-01-02T11:23:50.459Z,1.27
2023-01-02T11:26:21.594Z,1.70
2023-01-02T11:28:49.649Z,1.58
2023-01-02T11:31:16.886Z,1.70
2023-01-02T11:33:44.122Z,1.50
2023-01-02T11:36:12.851Z,1.70
2023-01-02T11:38:44.984Z,1.80
2023-01-02T11:41:49.169Z,1.60
2023-01-02T11:44:34.210Z,1.58
2023-01-02T11:47:01.428Z,1.73
2023-01-02T11:49:30.549Z,1.70
2023-01-02T11:51:58.935Z,1.48
2023-01-02T11:54:30.840Z,1.80
2023-01-02T11:56:58.697Z,1.40
2023-01-02T11:59:28.432Z,1.75
2023-01-02T12:01:58.154Z,1.40
2023-01-02T12:04:24.764Z,2.08
2023-01-02T12:06:59.596Z,1.70
2023-01-02T12:09:25.994Z,1.90
2023-01-02T12:12:03.196Z,1.73
2023-01-02T12:14:41.423Z,1.70
2023-01-02T12:17:25.291Z,1.83
2023-01-02T12:20:05.691Z,1.67
2023-01-02T12:22:41.951Z,1.70
2023-01-02T12:25:15.743Z,1.80
2023-01-02T12:28:05.192Z,1.63
2023-01-02T12:30:34.654Z,1.77
2023-01-02T12:33:04.088Z,1.45
2023-01-02T12:35:39.072Z,1.67
2023-01-02T12:38:08.140Z,1.60
2023-01-02T12:40:38.852Z,1.60
2023-01-02T12:43:24.135Z,1.55
2023-01-02T12:46:09.524Z,1.80
2023-01-02T12:48:46.185Z,1.80
2023-01-02T12:51:19.528Z,1.52
2023-01-02T12:53:45.866Z,1.80
2023-01-02T12:56:12.203Z,1.60
2023-01-02T12:58:51.543Z,1.83
2023-01-02T13:01:18.436Z,1.75
2023-01-02T13:03:51.898Z,1.75
2023-01-02T13:06:45.592Z,2.13
2023-01-02T13:09:15.713Z,2.00
2023-01-02T13:12:06.055Z,1.52
2023-01-02T13:14:36.832Z,1.40
2023-01-02T13:17:22.134Z,1.67
2023-01-02T13:19:51.791Z,1.97
2023-01-02T13:22:30.408Z,2.15
2023-01-02T13:24:57.999Z,1.55
2023-01-02T13:27:24.526Z,1.52
2023-01-02T13:29:52.999Z,1.83
2023-01-02T13:32:26.574Z,2.00
2023-01-02T13:34:54.215Z,1.67
2023-01-02T13:37:22.395Z,1.80
2023-01-02T13:39:50.404Z,1.98
2023-01-02T13:42:46.233Z,1.75
2023-01-02T13:45:18.249Z,1.92
2023-01-02T13:47:56.651Z,1.90
2023-01-02T13:50:23.619Z,2.00
2023-01-02T13:53:10.241Z,1.75
2023-01-02T13:55:39.323Z,2.08
2023-01-02T13:58:11.862Z,1.65
2023-01-02T14:00:39.529Z,2.15
2023-01-02T14:03:35.086Z,1.90
2023-01-02T14:06:06.293Z,1.83
2023-01-02T14:08:37.353Z,1.95
2023-01-02T14:11:13.522Z,2.15
2023-01-02T14:13:51.104Z,2.25
2023-01-02T14:16:23.623Z,2.15
2023-01-02T14:19:02.427Z,2.47
2023-01-02T14:21:36.570Z,1.67
2023-01-02T14:24:16.852Z,1.83
2023-01-02T14:26:50.955Z,1.98
2023-01-02T14:29:17.364Z,2.00
2023-01-02T14:31:44.248Z,2.03
2023-01-02T14:34:11.982Z,2.22
2023-01-02T14:36:43.506Z,1.90
2023-01-02T14:39:39.395Z,1.90
2023-01-02T14:42:31.274Z,1.95
2023-01-02T14:45:02.105Z,1.75
2023-01-02T14:47:34.555Z,1.65
2023-01-02T14:50:02.561Z,1.98
2023-01-02T14:52:31.699Z,2.38
2023-01-02T14:55:18.347Z,1.85
2023-01-02T14:57:48.356Z,1.90
2023-01-02T15:00:20.539Z,1.83
2023-01-02T15:02:48.393Z,1.50
2023-01-02T15:05:34.575Z,2.10
2023-01-02T15:13:03.829Z,1.83
2023-01-02T15:15:38.334Z,1.98
2023-01-02T15:18:06.373Z,1.73
2023-01-02T15:20:34.367Z,2.05
2023-01-02T15:23:01.063Z,1.90
2023-01-02T15:25:30.428Z,2.35
2023-01-02T15:27:56.815Z,1.88
2023-01-02T15:30:38.287Z,2.05
2023-01-02T15:33:05.879Z,2.15
2023-01-02T15:35:35.074Z,2.55
2023-01-02T15:38:01.664Z,2.22
2023-01-02T15:40:28.441Z,3.38
2023-01-02T15:43:15.644Z,3.22
2023-01-02T15:45:49.183Z,2.80
2023-01-02T15:48:15.799Z,2.53
2023-01-02T15:50:42.686Z,3.10
2023-01-02T15:53:23.976Z,2.80
2023-01-02T15:55:50.543Z,3.78
2023-01-02T15:58:16.941Z,3.45
2023-01-02T16:00:44.532Z,3.70
2023-01-02T16:03:12.042Z,4.07
2023-01-02T16:05:57.822Z,3.33
2023-01-02T16:08:25.266Z,2.90
2023-01-02T16:11:01.221Z,3.10
2023-01-02T16:13:48.373Z,3.15
2023-01-02T16:16:15.628Z,2.88
2023-01-02T16:18:44.550Z,2.58
2023-01-02T16:21:14.803Z,3.00
2023-01-02T16:23:44.700Z,2.80
2023-01-02T16:26:12.260Z,3.03
2023-01-02T16:28:40.497Z,2.88
2023-01-02T16:31:12.084Z,3.08
2023-01-02T16:33:39.140Z,2.03
2023-01-02T16:36:05.542Z,2.03
2023-01-02T16:38:33.157Z,2.50
2023-01-02T16:41:04.694Z,2.20
2023-01-02T16:43:34.464Z,3.20
2023-01-02T16:46:08.226Z,2.38
2023-01-02T16:48:37.577Z,2.35
2023-01-02T16:51:04.008Z,2.10
2023-01-02T16:53:31.687Z,2.22
2023-01-02T16:55:58.499Z,2.40
2023-01-02T16:58:27.609Z,3.72
2023-01-02T17:00:55.546Z,2.45
2023-01-02T17:03:23.877Z,2.55
2023-01-02T17:06:01.821Z,2.60
2023-01-02T17:08:32.799Z,2.38
2023-01-02T17:10:59.656Z,2.42
2023-01-02T17:13:26.649Z,2.42
2023-01-02T17:15:53.141Z,3.17
2023-01-02T17:18:19.766Z,2.97
2023-01-02T17:20:46.167Z,2.55
2023-01-02T17:23:12.533Z,2.35
2023-01-02T17:25:40.998Z,2.45
2023-01-02T17:28:07.378Z,2.60
2023-01-02T17:30:33.902Z,2.75
2023-01-02T17:33:04.261Z,2.28
2023-01-02T17:35:31.049Z,2.65
2023-01-02T17:37:57.629Z,2.25
2023-01-02T17:40:24.016Z,2.50
2023-01-02T17:42:50.334Z,2.28
2023-01-02T17:45:16.817Z,2.25
2023-01-02T17:50:29.598Z,1.92
2023-01-02T17:52:56.092Z,2.30
2023-01-02T17:55:22.502Z,2.40
2023-01-02T17:57:48.966Z,1.98
2023-01-02T18:00:15.572Z,1.90
2023-01-02T18:02:42.195Z,2.03
2023-01-02T18:05:08.999Z,2.08
2023-01-02T18:07:35.356Z,2.22
2023-01-02T18:10:07.604Z,2.60
2023-01-02T18:12:36.576Z,2.38
2023-01-02T18:15:09.466Z,2.45
2023-01-02T18:17:35.836Z,2.20
2023-01-02T18:20:02.419Z,2.17
2023-01-02T18:22:31.241Z,2.28
2023-01-02T18:24:57.592Z,2.28
2023-01-02T18:27:29.256Z,2.20
2023-01-02T18:29:59.956Z,2.58
2023-01-02T18:32:35.150Z,2.15
2023-01-02T18:35:55.568Z,2.28
2023-01-02T18:38:17.764Z,2.15
2023-01-02T18:40:44.164Z,2.60
2023-01-02T18:43:19.410Z,2.15
2023-01-02T18:45:48.996Z,2.53
2023-01-02T18:48:17.698Z,2.30
2023-01-02T18:50:46.472Z,2.60
2023-01-02T18:53:23.236Z,2.40
2023-01-02T18:56:09.798Z,2.50
2023-01-02T18:58:42.208Z,2.55
2023-01-02T19:01:14.828Z,2.08
2023-01-02T19:03:41.487Z,2.28
2023-01-02T19:06:16.660Z,1.80
2023-01-02T19:08:43.058Z,2.78
2023-01-02T19:11:36.351Z,2.72
2023-01-02T19:14:11.094Z,2.03
2023-01-02T19:16:37.455Z,2.10
2023-01-02T19:19:09.476Z,2.15
2023-01-02T19:21:36.059Z,1.90
2023-01-02T19:24:02.438Z,2.38
2023-01-02T19:26:28.796Z,1.95
2023-01-02T19:29:01.237Z,2.28
2023-01-02T19:31:30.265Z,2.10
2023-01-02T19:33:57.595Z,1.70
2023-01-02T19:36:28.627Z,2.03
2023-01-02T19:38:55.029Z,1.70
2023-01-02T19:41:41.444Z,1.92
2023-01-02T19:44:07.910Z,2.00
2023-01-02T19:46:34.398Z,1.60
2023-01-02T19:49:00.871Z,1.60
2023-01-02T19:51:31.937Z,1.90
2023-01-02T19:54:03.780Z,2.00
2023-01-02T19:56:30.841Z,1.90
2023-01-02T19:58:57.236Z,1.55
2023-01-02T20:01:23.761Z,1.30
2023-01-02T20:03:50.269Z,0.93
2023-01-02T20:06:17.910Z,0.93
2023-01-02T20:08:44.404Z,1.30
2023-01-02T20:11:30.760Z,0.98
2023-01-02T20:13:57.088Z,1.25
2023-01-02T20:16:23.484Z,1.30
2023-01-02T20:18:50.035Z,1.33
2023-01-02T20:21:16.482Z,1.27
2023-01-02T20:23:42.906Z,1.25
2023-01-02T20:26:09.432Z,1.35
2023-01-02T20:28:35.916Z,1.45
2023-01-02T20:31:02.280Z,1.60
2023-01-02T20:33:28.676Z,1.17
2023-01-02T20:35:54.994Z,1.15
2023-01-02T20:38:21.387Z,1.30
2023-01-02T20:40:48.474Z,1.27
2023-01-02T20:43:14.796Z,1.08
2023-01-02T20:45:41.147Z,1.50
2023-01-02T20:48:07.598Z,1.75
2023-01-02T20:50:33.983Z,1.63
2023-01-02T20:53:00.390Z,1.40
2023-01-02T20:55:26.901Z,1.33
2023-01-02T20:57:53.523Z,1.38
2023-01-02T21:00:20.459Z,1.67
2023-01-02T21:02:46.952Z,1.55
2023-01-02T21:05:13.649Z,1.75
2023-01-02T21:07:40.003Z,2.08
2023-01-02T21:10:06.790Z,1.80
2023-01-02T21:12:51.922Z,1.75
2023-01-02T21:15:37.106Z,1.83
2023-01-02T21:18:03.724Z,1.60
2023-01-02T21:20:30.082Z,1.50
2023-01-02T21:22:56.466Z,1.92
2023-01-02T21:25:22.850Z,1.80
2023-01-02T21:27:49.214Z,1.60
2023-01-02T21:30:15.878Z,1.70
2023-01-02T21:32:42.365Z,1.70
2023-01-02T21:35:08.939Z,1.73
2023-01-02T21:37:35.385Z,1.70
2023-01-02T21:40:04.534Z,1.85
2023-01-02T21:42:31.179Z,1.73
2023-01-02T21:44:57.489Z,1.52
2023-01-02T21:47:23.901Z,1.65
2023-01-02T21:49:50.374Z,1.75
2023-01-02T21:52:16.768Z,1.42
2023-01-02T21:54:43.257Z,1.40
2023-01-02T21:57:09.871Z,1.63
2023-01-02T21:59:36.547Z,1.42
2023-01-02T22:02:06.738Z,1.23
2023-01-02T22:04:33.717Z,1.20
2023-01-02T22:09:46.553Z,1.20
2023-01-02T22:12:13.019Z,1.00
2023-01-02T22:14:39.602Z,1.00
2023-01-02T22:17:07.347Z,1.00
2023-01-02T22:19:34.166Z,1.00
2023-01-02T22:22:00.763Z,0.80
2023-01-02T22:24:28.687Z,1.00
2023-01-02T22:26:56.474Z,1.00
2023-01-02T22:29:26.275Z,1.00
2023-01-02T22:32:04.999Z,0.90
2023-01-02T22:34:32.894Z,1.45
2023-01-02T22:36:59.892Z,1.20
2023-01-02T22:39:28.425Z,1.20
2023-01-02T22:42:41.346Z,0.88
2023-01-02T22:45:04.000Z,0.98
2023-01-02T22:47:31.534Z,0.88
2023-01-02T22:49:58.430Z,0.60
2023-01-02T22:52:25.506Z,0.55
2023-01-02T22:54:51.947Z,0.45
2023-01-02T22:57:18.771Z,0.60
2023-01-02T22:59:45.179Z,0.68
2023-01-02T23:02:13.459Z,0.60
2023-01-02T23:04:39.845Z,0.57
2023-01-02T23:07:23.457Z,0.60
2023-01-02T23:09:50.547Z,0.52
2023-01-02T23:12:16.933Z,0.52
2023-01-02T23:14:43.420Z,0.55
2023-01-02T23:17:29.832Z,0.38
2023-01-02T23:19:56.338Z,0.57
2023-01-02T23:22:23.060Z,0.52
2023-01-02T23:24:49.503Z,0.60
2023-01-02T23:27:15.945Z,0.30
2023-01-02T23:29:42.564Z,0.60
2023-01-02T23:32:10.363Z,0.50
2023-01-02T23:34:37.378Z,0.52
2023-01-02T23:37:03.994Z,0.50
2023-01-02T23:39:31.784Z,0.50
2023-01-02T23:41:58.481Z,0.70
2023-01-02T23:44:25.993Z,0.50
2023-01-02T23:46:52.929Z,0.70
2023-01-02T23:49:19.311Z,0.70
2023-01-02T23:51:46.138Z,0.60
2023-01-02T23:54:14.404Z,0.90
2023-01-02T23:56:42.020Z,0.80
2023-01-02T23:59:09.892Z,0.70
